createdAt,value
2024-03-24T00:00:30.716Z,170.88
2024-03-24T00:01:32.746Z,170.47
2024-03-24T00:02:30.790Z,173.10
2024-03-24T00:03:30.854Z,171.25
2024-03-24T00:04:30.874Z,168.98
2024-03-24T00:05:30.917Z,174.23
2024-03-24T00:06:30.950Z,171.58
2024-03-24T00:07:30.987Z,170.04
2024-03-24T00:08:31.015Z,168.87
2024-03-24T00:09:31.048Z,169.24
2024-03-24T00:10:31.106Z,169.98
2024-03-24T00:11:31.142Z,169.77
2024-03-24T00:12:31.136Z,169.65
2024-03-24T00:13:31.134Z,169.27
2024-03-24T00:14:31.140Z,170.15
2024-03-24T00:15:31.138Z,170.49
2024-03-24T00:16:31.152Z,170.43
2024-03-24T00:17:31.146Z,171.54
2024-03-24T00:18:31.132Z,171.60
2024-03-24T00:19:31.139Z,170.90
2024-03-24T00:20:31.141Z,172.34
2024-03-24T00:21:31.149Z,171.05
2024-03-24T00:22:31.142Z,169.81
2024-03-24T00:23:31.163Z,170.02
2024-03-24T00:24:31.148Z,169.56
2024-03-24T00:25:31.153Z,168.40
2024-03-24T00:26:31.162Z,170.55
2024-03-24T00:27:31.162Z,170.07
2024-03-24T00:28:31.214Z,169.86
2024-03-24T00:29:31.229Z,170.76
2024-03-24T00:30:31.279Z,168.20
2024-03-24T00:31:31.318Z,169.09
2024-03-24T00:32:31.351Z,174.41
2024-03-24T00:33:31.391Z,170.77
2024-03-24T00:34:31.420Z,172.09
2024-03-24T00:35:31.466Z,167.96
2024-03-24T00:36:31.509Z,169.29
2024-03-24T00:37:31.564Z,167.46
2024-03-24T00:38:31.587Z,167.79
2024-03-24T00:39:31.642Z,167.59
2024-03-24T00:40:31.677Z,168.62
2024-03-24T00:41:31.721Z,170.55
2024-03-24T00:42:31.781Z,171.75
2024-03-24T00:43:31.799Z,168.30
2024-03-24T00:44:31.818Z,169.85
2024-03-24T00:45:31.854Z,168.26
2024-03-24T00:46:31.895Z,168.05
2024-03-24T00:47:31.923Z,167.99
2024-03-24T00:48:31.958Z,169.38
2024-03-24T00:49:32.008Z,169.73
2024-03-24T00:50:32.040Z,169.18
2024-03-24T00:51:32.086Z,168.52
2024-03-24T00:52:32.098Z,170.07
2024-03-24T00:53:32.141Z,166.92
2024-03-24T00:54:32.175Z,168.75
2024-03-24T00:55:32.216Z,167.86
2024-03-24T00:56:32.276Z,169.13
2024-03-24T00:57:32.300Z,168.53
2024-03-24T00:58:32.342Z,168.05
2024-03-24T00:59:32.384Z,166.06
2024-03-24T01:00:32.429Z,168.21
2024-03-24T01:01:32.471Z,166.03
2024-03-24T01:02:32.538Z,165.50
2024-03-24T01:03:32.579Z,167.43
2024-03-24T01:04:32.632Z,168.19
2024-03-24T01:05:32.690Z,167.63
2024-03-24T01:06:32.743Z,168.25
2024-03-24T01:07:32.783Z,167.48
2024-03-24T01:08:32.860Z,167.73
2024-03-24T01:09:32.888Z,165.73
2024-03-24T01:10:32.890Z,165.82
2024-03-24T01:11:32.922Z,166.09
2024-03-24T01:12:32.899Z,167.02
2024-03-24T01:13:32.888Z,165.61
2024-03-24T01:14:32.908Z,168.12
2024-03-24T01:15:32.907Z,170.01
2024-03-24T01:16:32.911Z,166.35
2024-03-24T01:17:32.912Z,169.55
2024-03-24T01:18:32.911Z,166.72
2024-03-24T01:19:33.088Z,166.17
2024-03-24T01:20:32.894Z,163.11
2024-03-24T01:21:32.916Z,165.99
2024-03-24T01:22:32.903Z,165.46
2024-03-24T01:23:32.907Z,168.00
2024-03-24T01:24:32.944Z,165.57
2024-03-24T01:25:32.991Z,166.40
2024-03-24T01:26:33.040Z,166.67
2024-03-24T01:27:33.089Z,168.20
2024-03-24T01:28:33.126Z,168.72
2024-03-24T01:29:33.176Z,166.37
2024-03-24T01:30:33.220Z,164.73
2024-03-24T01:31:33.271Z,167.35
2024-03-24T01:32:33.317Z,166.55
2024-03-24T01:33:33.351Z,165.30
2024-03-24T01:34:33.419Z,165.08
2024-03-24T01:35:33.426Z,166.12
2024-03-24T01:36:33.478Z,166.39
2024-03-24T01:37:33.501Z,166.16
2024-03-24T01:38:33.530Z,168.29
2024-03-24T01:39:33.570Z,164.07
2024-03-24T01:40:33.619Z,164.39
2024-03-24T01:41:33.669Z,164.30
2024-03-24T01:42:33.699Z,165.00
2024-03-24T01:43:33.745Z,164.52
2024-03-24T01:44:33.792Z,165.62
2024-03-24T01:45:33.855Z,165.60
2024-03-24T01:46:33.918Z,166.12
2024-03-24T01:47:33.949Z,163.38
2024-03-24T01:48:34.004Z,164.95
2024-03-24T01:49:34.074Z,164.53
2024-03-24T01:50:34.117Z,164.02
2024-03-24T01:51:34.154Z,164.43
2024-03-24T01:52:34.219Z,167.42
2024-03-24T01:53:34.266Z,163.10
2024-03-24T01:54:34.318Z,167.75
2024-03-24T01:55:34.378Z,160.63
2024-03-24T01:56:34.451Z,164.34
2024-03-24T01:57:34.488Z,163.21
2024-03-24T01:58:34.543Z,164.29
2024-03-24T01:59:34.602Z,164.14
2024-03-24T02:00:34.712Z,166.46
2024-03-24T02:01:34.710Z,165.40
2024-03-24T02:02:34.768Z,163.09
2024-03-24T02:03:34.843Z,165.12
2024-03-24T02:04:34.878Z,164.19
2024-03-24T02:05:34.915Z,163.90
2024-03-24T02:06:34.996Z,161.95
2024-03-24T02:07:35.027Z,162.41
2024-03-24T02:08:35.077Z,165.75
2024-03-24T02:09:35.124Z,164.00
2024-03-24T02:10:35.188Z,162.45
2024-03-24T02:11:35.233Z,163.20
2024-03-24T02:12:35.286Z,165.99
2024-03-24T02:13:35.331Z,163.59
2024-03-24T02:14:35.393Z,164.73
2024-03-24T02:15:35.430Z,163.37
2024-03-24T02:16:35.493Z,165.59
2024-03-24T02:17:35.551Z,162.38
2024-03-24T02:18:35.600Z,163.91
2024-03-24T02:19:35.659Z,164.20
2024-03-24T02:20:35.709Z,160.50
2024-03-24T02:21:35.763Z,164.18
2024-03-24T02:22:35.816Z,163.44
2024-03-24T02:23:35.874Z,162.69
2024-03-24T02:24:35.934Z,160.91
2024-03-24T02:25:35.989Z,164.16
2024-03-24T02:26:36.052Z,164.54
2024-03-24T02:27:36.091Z,162.72
2024-03-24T02:28:36.126Z,163.84
2024-03-24T02:29:36.180Z,162.84
2024-03-24T02:30:36.246Z,162.48
2024-03-24T02:31:36.287Z,162.59
2024-03-24T02:32:36.335Z,163.34
2024-03-24T02:33:36.368Z,163.34
2024-03-24T02:34:36.345Z,161.80
2024-03-24T02:35:36.358Z,163.36
2024-03-24T02:36:36.364Z,162.39
2024-03-24T02:37:36.342Z,163.11
2024-03-24T02:38:36.347Z,162.62
2024-03-24T02:39:36.342Z,162.34
2024-03-24T02:40:36.343Z,163.52
2024-03-24T02:41:36.353Z,163.04
2024-03-24T02:42:36.337Z,162.50
2024-03-24T02:43:36.365Z,161.99
2024-03-24T02:44:36.339Z,161.72
2024-03-24T02:45:36.339Z,156.83
2024-03-24T02:46:36.359Z,162.39
2024-03-24T02:47:36.391Z,162.54
2024-03-24T02:48:36.454Z,162.05
2024-03-24T02:49:36.499Z,160.50
2024-03-24T02:50:36.559Z,160.24
2024-03-24T02:51:36.632Z,161.64
2024-03-24T02:52:36.670Z,161.15
2024-03-24T02:53:36.730Z,160.59
2024-03-24T02:54:36.798Z,160.94
2024-03-24T02:55:36.845Z,161.50
2024-03-24T02:56:36.899Z,160.48
2024-03-24T02:57:36.955Z,161.95
2024-03-24T02:58:37.018Z,158.91
2024-03-24T02:59:37.075Z,162.05
2024-03-24T03:00:37.130Z,159.80
2024-03-24T03:01:37.165Z,159.95
2024-03-24T03:02:37.199Z,162.24
2024-03-24T03:03:37.261Z,160.70
2024-03-24T03:04:37.284Z,160.80
2024-03-24T03:05:37.318Z,161.94
2024-03-24T03:06:37.372Z,161.75
2024-03-24T03:07:37.408Z,162.04
2024-03-24T03:08:37.448Z,160.43
2024-03-24T03:09:37.499Z,160.21
2024-03-24T03:10:37.538Z,158.62
2024-03-24T03:11:37.579Z,160.65
2024-03-24T03:12:37.626Z,158.64
2024-03-24T03:13:37.672Z,159.82
2024-03-24T03:14:37.724Z,159.18
2024-03-24T03:15:37.765Z,160.58
2024-03-24T03:16:37.810Z,161.95
2024-03-24T03:17:37.880Z,159.95
2024-03-24T03:18:37.916Z,159.90
2024-03-24T03:19:37.977Z,158.47
2024-03-24T03:20:38.013Z,161.39
2024-03-24T03:21:38.064Z,159.16
2024-03-24T03:22:38.126Z,161.64
2024-03-24T03:23:38.169Z,162.18
2024-03-24T03:24:38.235Z,165.41
2024-03-24T03:25:38.298Z,174.05
2024-03-24T03:26:38.370Z,174.55
2024-03-24T03:27:38.446Z,175.88
2024-03-24T03:28:38.501Z,177.68
2024-03-24T03:29:38.590Z,180.70
2024-03-24T03:30:38.633Z,177.86
2024-03-24T03:31:38.671Z,178.95
2024-03-24T03:32:38.704Z,175.12
2024-03-24T03:33:38.731Z,171.95
2024-03-24T03:34:38.732Z,168.72
2024-03-24T03:35:38.737Z,169.29
2024-03-24T03:36:38.745Z,164.87
2024-03-24T03:37:38.741Z,160.64
2024-03-24T03:38:38.760Z,160.55
2024-03-24T03:39:38.769Z,157.18
2024-03-24T03:40:38.810Z,154.81
2024-03-24T03:41:38.832Z,153.71
2024-03-24T03:42:38.865Z,148.24
2024-03-24T03:43:38.892Z,143.62
2024-03-24T03:44:38.929Z,144.42
2024-03-24T03:45:38.963Z,141.03
2024-03-24T03:46:38.998Z,139.89
2024-03-24T03:47:39.029Z,134.98
2024-03-24T03:48:39.044Z,135.73
2024-03-24T03:49:39.067Z,130.76
2024-03-24T03:50:39.104Z,130.45
2024-03-24T03:51:39.138Z,129.32
2024-03-24T03:52:39.166Z,125.48
2024-03-24T03:53:39.197Z,123.60
2024-03-24T03:54:39.239Z,124.79
2024-03-24T03:55:39.258Z,121.62
2024-03-24T03:56:39.312Z,121.51
2024-03-24T03:57:39.334Z,121.93
2024-03-24T03:58:39.370Z,120.29
2024-03-24T03:59:39.380Z,119.02
2024-03-24T04:00:39.376Z,118.61
2024-03-24T04:01:39.402Z,118.69
2024-03-24T04:02:39.392Z,117.80
2024-03-24T04:03:39.374Z,117.11
2024-03-24T04:04:39.376Z,114.42
2024-03-24T04:05:39.378Z,112.39
2024-03-24T04:06:39.378Z,113.21
2024-03-24T04:07:39.376Z,109.75
2024-03-24T04:08:39.392Z,112.35
2024-03-24T04:09:39.387Z,109.12
2024-03-24T04:10:39.379Z,107.02
2024-03-24T04:11:39.386Z,105.71
2024-03-24T04:12:39.372Z,105.50
2024-03-24T04:13:39.374Z,100.57
2024-03-24T04:14:39.378Z,100.65
2024-03-24T04:15:39.401Z,99.27
2024-03-24T04:16:39.449Z,98.55
2024-03-24T04:17:39.465Z,96.72
2024-03-24T04:18:39.519Z,97.96
2024-03-24T04:19:39.538Z,97.50
2024-03-24T04:20:46.731Z,50.00
2024-03-24T04:21:46.751Z,50.00
2024-03-24T04:22:46.722Z,50.00
2024-03-24T04:23:46.718Z,50.00
2024-03-24T04:24:46.715Z,50.00
2024-03-24T04:25:46.719Z,53.12
2024-03-24T04:26:46.733Z,51.91
2024-03-24T04:27:46.730Z,53.52
2024-03-24T04:28:46.726Z,53.16
2024-03-24T04:29:46.737Z,54.11
2024-03-24T04:30:46.725Z,54.34
2024-03-24T04:31:53.915Z,50.00
2024-03-24T04:32:53.915Z,50.00
2024-03-24T04:33:53.911Z,50.00
2024-03-24T04:34:53.907Z,50.00
2024-03-24T04:35:53.925Z,50.00
2024-03-24T04:36:53.913Z,53.17
2024-03-24T04:37:53.905Z,50.85
2024-03-24T04:38:53.920Z,52.89
2024-03-24T04:39:53.915Z,50.00
2024-03-24T04:40:53.933Z,51.33
2024-03-24T04:41:53.926Z,54.89
2024-03-24T04:42:53.913Z,51.42
2024-03-24T04:43:53.915Z,50.80
2024-03-24T04:44:53.920Z,52.41
2024-03-24T04:45:53.924Z,51.62
2024-03-24T04:46:53.917Z,53.98
2024-03-24T04:47:53.919Z,53.33
2024-03-24T04:48:53.926Z,54.00
2024-03-24T04:49:53.921Z,52.74
2024-03-24T04:50:53.923Z,51.14
2024-03-24T04:51:53.921Z,52.83
2024-03-24T04:52:53.914Z,54.04
2024-03-24T04:53:53.936Z,51.32
2024-03-24T04:54:53.911Z,54.04
2024-03-24T04:55:53.912Z,52.52
2024-03-24T04:56:53.926Z,53.94
2024-03-24T04:57:53.924Z,51.70
2024-03-24T04:58:53.919Z,51.54
2024-03-24T04:59:53.926Z,54.35
2024-03-24T05:00:53.921Z,55.30
2024-03-24T05:01:53.950Z,53.64
2024-03-24T05:02:53.944Z,51.28
2024-03-24T05:03:53.941Z,53.79
2024-03-24T05:04:53.943Z,53.07
2024-03-24T05:05:53.935Z,50.21
2024-03-24T05:06:53.941Z,54.92
2024-03-24T05:07:53.970Z,53.49
2024-03-24T05:08:54.007Z,57.29
2024-03-24T05:09:54.072Z,57.02
2024-03-24T05:10:54.146Z,52.54
2024-03-24T05:11:54.217Z,52.89
2024-03-24T05:12:54.282Z,52.08
2024-03-24T05:13:54.343Z,52.89
2024-03-24T05:14:54.392Z,54.02
2024-03-24T05:15:54.458Z,52.11
2024-03-24T05:16:54.486Z,51.81
2024-03-24T05:17:54.475Z,52.38
2024-03-24T05:18:54.460Z,50.66
2024-03-24T05:19:54.510Z,50.89
2024-03-24T05:20:54.480Z,48.59
2024-03-24T05:21:54.493Z,50.19
2024-03-24T05:22:54.471Z,51.00
2024-03-24T05:23:54.530Z,54.99
2024-03-24T05:24:54.581Z,52.65
2024-03-24T05:25:54.648Z,53.44
2024-03-24T05:26:54.701Z,51.76
2024-03-24T05:27:54.712Z,51.84
2024-03-24T05:28:56.037Z,51.81
2024-03-24T05:29:54.708Z,52.08
2024-03-24T05:30:54.712Z,52.59
2024-03-24T05:31:54.719Z,53.09
2024-03-24T05:32:54.722Z,55.59
2024-03-24T05:33:54.726Z,51.89
2024-03-24T05:34:54.730Z,51.81
2024-03-24T05:35:54.719Z,53.03
2024-03-24T05:36:54.730Z,54.46
2024-03-24T05:37:54.725Z,55.84
2024-03-24T05:38:54.715Z,56.67
2024-03-24T05:39:54.731Z,56.34
2024-03-24T05:40:54.735Z,60.24
2024-03-24T05:41:54.794Z,56.57
2024-03-24T05:42:54.857Z,57.94
2024-03-24T05:43:54.930Z,58.94
2024-03-24T05:44:55.013Z,58.90
2024-03-24T05:45:55.076Z,60.00
2024-03-24T05:46:55.138Z,59.46
2024-03-24T05:47:55.208Z,56.74
2024-03-24T05:48:55.283Z,58.26
2024-03-24T05:49:55.356Z,60.65
2024-03-24T05:50:55.430Z,56.99
2024-03-24T05:51:55.489Z,57.65
2024-03-24T05:52:55.571Z,60.66
2024-03-24T05:53:55.630Z,59.28
2024-03-24T05:54:55.687Z,62.42
2024-03-24T05:55:55.756Z,61.73
2024-03-24T05:56:55.850Z,60.10
2024-03-24T05:57:55.912Z,60.67
2024-03-24T05:58:55.979Z,59.00
2024-03-24T05:59:56.038Z,59.69
2024-03-24T06:00:56.132Z,62.39
2024-03-24T06:01:56.184Z,61.52
2024-03-24T06:02:56.255Z,58.44
2024-03-24T06:03:56.337Z,60.44
2024-03-24T06:04:56.386Z,59.59
2024-03-24T06:05:56.457Z,60.86
2024-03-24T06:06:56.512Z,58.44
2024-03-24T06:07:56.574Z,57.63
2024-03-24T06:08:56.622Z,56.11
2024-03-24T06:09:56.697Z,55.48
2024-03-24T06:10:56.759Z,59.62
2024-03-24T06:11:56.833Z,56.02
2024-03-24T06:12:56.909Z,55.71
2024-03-24T06:13:56.981Z,54.40
2024-03-24T06:14:57.047Z,59.03
2024-03-24T06:15:57.130Z,56.89
2024-03-24T06:16:57.201Z,59.23
2024-03-24T06:17:57.266Z,57.13
2024-03-24T06:18:57.304Z,59.43
2024-03-24T06:19:57.375Z,60.46
2024-03-24T06:20:57.426Z,56.29
2024-03-24T06:21:57.506Z,55.78
2024-03-24T06:22:57.565Z,61.14
2024-03-24T06:23:57.633Z,57.14
2024-03-24T06:24:57.715Z,57.15
2024-03-24T06:25:57.722Z,57.27
2024-03-24T06:26:57.723Z,57.96
2024-03-24T06:27:57.723Z,57.54
2024-03-24T06:28:57.705Z,58.92
2024-03-24T06:29:57.717Z,60.28
2024-03-24T06:30:57.730Z,61.80
2024-03-24T06:31:57.728Z,60.06
2024-03-24T06:32:57.717Z,62.39
2024-03-24T06:33:57.793Z,61.15
2024-03-24T06:34:57.854Z,60.30
2024-03-24T06:35:57.926Z,62.76
2024-03-24T06:36:58.003Z,63.82
2024-03-24T06:37:58.076Z,61.00
2024-03-24T06:38:58.133Z,62.60
2024-03-24T06:39:58.219Z,64.45
2024-03-24T06:40:58.279Z,62.17
2024-03-24T06:41:58.373Z,63.77
2024-03-24T06:42:58.416Z,57.94
2024-03-24T06:43:58.504Z,59.72
2024-03-24T06:44:58.565Z,61.03
2024-03-24T06:45:58.613Z,61.13
2024-03-24T06:46:58.690Z,60.37
2024-03-24T06:47:58.766Z,60.25
2024-03-24T06:48:58.835Z,59.77
2024-03-24T06:49:58.869Z,61.60
2024-03-24T06:50:58.923Z,59.65
2024-03-24T06:51:58.982Z,62.90
2024-03-24T06:52:59.045Z,55.30
2024-03-24T06:53:59.113Z,61.65
2024-03-24T06:54:59.167Z,58.75
2024-03-24T06:55:59.235Z,58.90
2024-03-24T06:56:59.298Z,57.88
2024-03-24T06:57:59.357Z,59.76
2024-03-24T06:58:59.439Z,55.84
2024-03-24T06:59:59.512Z,59.23
2024-03-24T07:00:59.587Z,59.55
2024-03-24T07:01:59.642Z,57.61
2024-03-24T07:02:59.686Z,60.48
2024-03-24T07:03:59.747Z,57.68
2024-03-24T07:04:59.802Z,57.64
2024-03-24T07:05:59.869Z,57.49
2024-03-24T07:06:59.915Z,59.42
2024-03-24T07:08:00.009Z,56.68
2024-03-24T07:09:00.076Z,57.40
2024-03-24T07:10:03.625Z,57.48
2024-03-24T07:11:00.147Z,57.43
2024-03-24T07:12:00.193Z,55.15
2024-03-24T07:13:00.133Z,57.92
2024-03-24T07:14:00.132Z,58.95
2024-03-24T07:15:00.258Z,59.86
2024-03-24T07:16:00.161Z,53.49
2024-03-24T07:17:00.158Z,57.24
2024-03-24T07:18:00.169Z,57.75
2024-03-24T07:19:00.166Z,57.86
2024-03-24T07:20:00.299Z,55.93
2024-03-24T07:21:00.262Z,58.89
2024-03-24T07:22:00.490Z,58.92
2024-03-24T07:23:00.439Z,60.14
2024-03-24T07:24:00.462Z,55.68
2024-03-24T07:25:00.493Z,58.13
2024-03-24T07:26:00.531Z,64.10
2024-03-24T07:27:00.568Z,61.41
2024-03-24T07:28:00.639Z,60.82
2024-03-24T07:29:00.707Z,61.12
2024-03-24T07:30:00.764Z,62.79
2024-03-24T07:31:00.824Z,62.98
2024-03-24T07:32:00.895Z,59.49
2024-03-24T07:33:00.973Z,60.40
2024-03-24T07:34:01.036Z,61.59
2024-03-24T07:35:01.095Z,60.36
2024-03-24T07:36:01.158Z,60.18
2024-03-24T07:37:01.253Z,59.02
2024-03-24T07:38:01.297Z,58.57
2024-03-24T07:39:01.399Z,61.57
2024-03-24T07:40:01.480Z,60.79
2024-03-24T07:41:01.514Z,59.16
2024-03-24T07:42:01.562Z,58.32
2024-03-24T07:43:01.628Z,60.94
2024-03-24T07:44:01.709Z,58.36
2024-03-24T07:45:01.770Z,60.31
2024-03-24T07:46:01.839Z,57.96
2024-03-24T07:47:01.908Z,58.17
2024-03-24T07:48:01.971Z,58.15
2024-03-24T07:49:02.029Z,56.71
2024-03-24T07:50:02.109Z,56.11
2024-03-24T07:51:02.175Z,54.88
2024-03-24T07:52:02.237Z,57.77
2024-03-24T07:53:02.297Z,54.54
2024-03-24T07:54:02.350Z,54.12
2024-03-24T07:55:02.399Z,51.50
2024-03-24T07:56:02.469Z,51.88
2024-03-24T07:57:02.596Z,52.96
2024-03-24T07:58:02.603Z,54.47
2024-03-24T07:59:02.666Z,54.16
2024-03-24T08:00:02.725Z,52.18
2024-03-24T08:01:02.777Z,52.24
2024-03-24T08:02:02.763Z,52.58
2024-03-24T08:03:02.772Z,52.53
2024-03-24T08:04:02.742Z,52.30
2024-03-24T08:05:02.740Z,52.21
2024-03-24T08:06:02.733Z,52.26
2024-03-24T08:07:02.747Z,51.34
2024-03-24T08:08:02.756Z,48.28
2024-03-24T08:09:02.761Z,47.88
2024-03-24T08:10:02.800Z,51.12
2024-03-24T08:11:02.752Z,50.00
2024-03-24T08:12:02.764Z,51.86
2024-03-24T08:13:02.746Z,50.10
2024-03-24T08:14:02.766Z,51.88
2024-03-24T08:15:02.809Z,50.00
2024-03-24T08:16:02.851Z,52.33
2024-03-24T08:17:02.909Z,51.51
2024-03-24T08:18:02.981Z,52.95
2024-03-24T08:19:03.015Z,51.84
2024-03-24T08:20:03.074Z,54.32
2024-03-24T08:21:03.126Z,52.10
2024-03-24T08:22:03.206Z,54.47
2024-03-24T08:23:03.276Z,50.00
2024-03-24T08:24:03.317Z,53.91
2024-03-24T08:25:03.385Z,52.19
2024-03-24T08:26:03.452Z,51.57
2024-03-24T08:27:03.534Z,50.00
2024-03-24T08:28:03.595Z,50.00
2024-03-24T08:29:03.656Z,51.97
2024-03-24T08:30:03.753Z,52.72
2024-03-24T08:31:03.799Z,48.58
2024-03-24T08:32:03.862Z,51.89
2024-03-24T08:33:03.930Z,50.49
2024-03-24T08:34:03.972Z,56.74
2024-03-24T08:35:04.032Z,50.89
2024-03-24T08:36:04.088Z,50.00
2024-03-24T08:37:04.152Z,51.99
2024-03-24T08:38:04.218Z,50.00
2024-03-24T08:39:04.254Z,49.16
2024-03-24T08:40:04.357Z,54.46
2024-03-24T08:41:04.375Z,53.53
2024-03-24T08:42:04.440Z,52.53
2024-03-24T08:43:04.513Z,53.64
2024-03-24T08:44:04.600Z,50.01
2024-03-24T08:45:04.661Z,50.05
2024-03-24T08:46:04.735Z,54.06
2024-03-24T08:47:04.802Z,55.12
2024-03-24T08:48:04.891Z,52.14
2024-03-24T08:49:04.933Z,52.84
2024-03-24T08:50:05.002Z,50.17
2024-03-24T08:51:05.055Z,50.92
2024-03-24T08:52:05.123Z,53.12
2024-03-24T08:53:05.176Z,51.06
2024-03-24T08:54:05.238Z,53.00
2024-03-24T08:55:05.290Z,52.46
2024-03-24T08:56:05.342Z,50.00
2024-03-24T08:57:05.400Z,52.28
2024-03-24T08:58:05.450Z,51.84
2024-03-24T08:59:05.507Z,51.02
2024-03-24T09:00:05.563Z,50.21
2024-03-24T09:01:05.618Z,52.42
2024-03-24T09:02:05.657Z,52.29
2024-03-24T09:03:05.666Z,48.12
2024-03-24T09:04:05.661Z,52.12
2024-03-24T09:05:05.677Z,52.32
2024-03-24T09:06:05.666Z,52.83
2024-03-24T09:07:05.695Z,50.52
2024-03-24T09:08:05.689Z,50.51
2024-03-24T09:09:05.676Z,52.37
2024-03-24T09:10:05.670Z,54.64
2024-03-24T09:11:05.684Z,52.30
2024-03-24T09:12:05.719Z,50.57
2024-03-24T09:13:05.769Z,54.94
2024-03-24T09:14:05.832Z,52.21
2024-03-24T09:15:05.918Z,53.04
2024-03-24T09:16:05.987Z,53.86
2024-03-24T09:17:06.052Z,50.81
2024-03-24T09:18:06.115Z,51.11
2024-03-24T09:19:06.184Z,54.55
2024-03-24T09:20:06.243Z,52.42
2024-03-24T09:21:06.318Z,52.23
2024-03-24T09:22:06.397Z,52.22
2024-03-24T09:23:06.449Z,52.06
2024-03-24T09:24:06.512Z,52.56
2024-03-24T09:25:06.573Z,49.80
2024-03-24T09:26:06.645Z,52.15
2024-03-24T09:27:06.704Z,52.49
2024-03-24T09:28:06.743Z,55.23
2024-03-24T09:29:06.791Z,52.88
2024-03-24T09:30:06.801Z,55.17
2024-03-24T09:31:06.838Z,55.91
2024-03-24T09:32:06.853Z,56.98
2024-03-24T09:33:06.877Z,59.20
2024-03-24T09:34:06.893Z,64.46
2024-03-24T09:35:13.163Z,66.70
2024-03-24T09:36:07.889Z,66.84
2024-03-24T09:37:06.893Z,67.64
2024-03-24T09:38:06.898Z,69.99
2024-03-24T09:39:06.922Z,76.74
2024-03-24T09:40:06.888Z,87.53
2024-03-24T09:41:06.883Z,90.26
2024-03-24T09:42:06.895Z,95.67
2024-03-24T09:43:06.889Z,103.86
2024-03-24T09:44:06.888Z,106.65
2024-03-24T09:45:06.897Z,104.12
2024-03-24T09:46:06.916Z,104.15
2024-03-24T09:47:06.890Z,109.82
2024-03-24T09:48:06.903Z,114.63
2024-03-24T09:49:06.963Z,117.99
2024-03-24T09:50:07.044Z,123.20
2024-03-24T09:51:07.113Z,124.13
2024-03-24T09:52:07.177Z,128.63
2024-03-24T09:53:07.232Z,130.98
2024-03-24T09:54:07.288Z,135.26
2024-03-24T09:55:07.355Z,138.76
2024-03-24T09:56:07.387Z,142.06
2024-03-24T09:57:07.433Z,141.72
2024-03-24T09:58:11.950Z,145.76
2024-03-24T09:59:08.533Z,145.84
2024-03-24T10:00:07.486Z,147.04
2024-03-24T10:01:07.512Z,149.60
2024-03-24T10:02:07.491Z,153.07
2024-03-24T10:03:07.487Z,159.21
2024-03-24T10:04:07.503Z,160.93
2024-03-24T10:05:07.504Z,162.59
2024-03-24T10:06:07.510Z,167.08
2024-03-24T10:07:07.506Z,170.60
2024-03-24T10:08:07.524Z,170.65
2024-03-24T10:09:07.518Z,171.26
2024-03-24T10:10:07.497Z,173.36
2024-03-24T10:11:07.498Z,170.86
2024-03-24T10:12:07.509Z,172.32
2024-03-24T10:13:07.523Z,174.05
2024-03-24T10:14:07.508Z,179.35
2024-03-24T10:15:07.515Z,186.15
2024-03-24T10:16:07.523Z,187.68
2024-03-24T10:17:07.522Z,188.47
2024-03-24T10:18:07.497Z,191.73
2024-03-24T10:19:07.509Z,191.91
2024-03-24T10:20:07.501Z,194.97
2024-03-24T10:21:07.505Z,194.03
2024-03-24T10:22:07.510Z,195.84
2024-03-24T10:23:07.571Z,199.43
2024-03-24T10:24:07.629Z,198.62
2024-03-24T10:25:07.692Z,198.52
2024-03-24T10:26:07.759Z,198.39
2024-03-24T10:27:07.854Z,197.31
2024-03-24T10:28:07.872Z,197.28
2024-03-24T10:29:07.946Z,198.50
2024-03-24T10:30:08.061Z,199.61
2024-03-24T10:31:08.103Z,198.54
2024-03-24T10:32:11.185Z,199.41
2024-03-24T10:33:09.124Z,198.52
2024-03-24T10:34:08.119Z,199.91
2024-03-24T10:35:08.123Z,200.18
2024-03-24T10:36:08.134Z,200.86
2024-03-24T10:37:08.132Z,201.94
2024-03-24T10:38:08.138Z,197.42
2024-03-24T10:39:08.155Z,196.51
2024-03-24T10:40:08.149Z,196.41
2024-03-24T10:41:08.170Z,198.82
2024-03-24T10:42:08.153Z,197.09
2024-03-24T10:43:08.183Z,198.65
2024-03-24T10:44:08.223Z,196.96
2024-03-24T10:45:08.237Z,197.01
2024-03-24T10:46:08.232Z,196.97
2024-03-24T10:47:08.244Z,197.30
2024-03-24T10:48:08.235Z,197.55
2024-03-24T10:49:08.240Z,201.31
2024-03-24T10:50:08.238Z,196.97
2024-03-24T10:51:08.237Z,198.32
2024-03-24T10:52:08.244Z,198.19
2024-03-24T10:53:08.232Z,198.87
2024-03-24T10:54:08.246Z,195.62
2024-03-24T10:55:08.236Z,196.84
2024-03-24T10:56:08.241Z,197.72
2024-03-24T10:57:08.252Z,197.79
2024-03-24T10:58:08.254Z,197.72
2024-03-24T10:59:10.479Z,198.37
2024-03-24T11:00:08.248Z,197.76
2024-03-24T11:01:08.248Z,196.97
2024-03-24T11:02:08.254Z,199.07
2024-03-24T11:03:08.259Z,198.07
2024-03-24T11:04:08.261Z,198.93
2024-03-24T11:05:08.368Z,198.23
2024-03-24T11:06:08.262Z,200.00
2024-03-24T11:07:08.289Z,200.00
2024-03-24T11:08:08.255Z,199.43
2024-03-24T11:09:08.278Z,195.95
2024-03-24T11:10:08.323Z,195.65
2024-03-24T11:11:08.258Z,197.18
2024-03-24T11:12:08.287Z,195.02
2024-03-24T11:13:08.269Z,196.18
2024-03-24T11:14:08.269Z,198.18
2024-03-24T11:15:08.262Z,198.62
2024-03-24T11:16:08.304Z,199.00
2024-03-24T11:17:08.367Z,197.59
2024-03-24T11:18:08.416Z,196.85
2024-03-24T11:19:08.456Z,198.25
2024-03-24T11:20:08.501Z,196.34
2024-03-24T11:21:08.531Z,197.53
2024-03-24T11:22:08.589Z,197.92
2024-03-24T11:23:08.627Z,198.21
2024-03-24T11:24:08.667Z,196.99
2024-03-24T11:25:08.715Z,197.92
2024-03-24T11:26:08.775Z,197.59
2024-03-24T11:27:08.811Z,198.89
2024-03-24T11:28:08.843Z,195.43
2024-03-24T11:29:08.894Z,196.48
2024-03-24T11:30:08.942Z,195.82
2024-03-24T11:31:08.982Z,195.55
2024-03-24T11:32:09.022Z,195.40
2024-03-24T11:33:09.088Z,196.13
2024-03-24T11:34:09.136Z,196.77
2024-03-24T11:35:09.193Z,196.88
2024-03-24T11:36:09.223Z,195.65
2024-03-24T11:37:09.275Z,196.07
2024-03-24T11:38:09.310Z,196.65
2024-03-24T11:39:09.358Z,196.36
2024-03-24T11:40:09.390Z,195.55
2024-03-24T11:41:09.437Z,197.60
2024-03-24T11:42:09.489Z,195.70
2024-03-24T11:43:09.553Z,199.37
2024-03-24T11:44:09.573Z,199.29
2024-03-24T11:45:09.627Z,197.25
2024-03-24T11:46:09.664Z,196.93
2024-03-24T11:47:09.716Z,197.11
2024-03-24T11:48:09.774Z,196.79
2024-03-24T11:49:09.798Z,198.08
2024-03-24T11:50:09.842Z,196.98
2024-03-24T11:51:09.871Z,197.34
2024-03-24T11:52:09.909Z,200.00
2024-03-24T11:53:09.959Z,194.62
2024-03-24T11:54:09.991Z,197.74
2024-03-24T11:55:10.048Z,195.95
2024-03-24T11:56:10.094Z,197.70
2024-03-24T11:57:10.162Z,194.89
2024-03-24T11:58:10.202Z,197.33
2024-03-24T11:59:10.256Z,196.02
2024-03-24T12:00:10.294Z,195.51
2024-03-24T12:01:10.346Z,196.07
2024-03-24T12:02:10.397Z,195.03
2024-03-24T12:03:10.481Z,195.56
2024-03-24T12:04:10.510Z,195.74
2024-03-24T12:05:10.560Z,196.33
2024-03-24T12:06:10.589Z,196.47
2024-03-24T12:07:10.647Z,194.01
2024-03-24T12:08:10.694Z,194.64
2024-03-24T12:09:10.760Z,195.41
2024-03-24T12:10:10.807Z,196.83
2024-03-24T12:11:10.853Z,195.21
2024-03-24T12:12:10.888Z,196.59
2024-03-24T12:13:10.928Z,195.25
2024-03-24T12:14:10.973Z,193.22
2024-03-24T12:15:10.999Z,195.20
2024-03-24T12:16:11.063Z,196.38
2024-03-24T12:17:11.634Z,192.56
2024-03-24T12:18:11.124Z,194.61
2024-03-24T12:19:11.173Z,194.86
2024-03-24T12:20:11.215Z,193.29
2024-03-24T12:21:11.247Z,194.04
2024-03-24T12:22:11.283Z,194.18
2024-03-24T12:23:14.053Z,195.32
2024-03-24T12:24:11.319Z,194.20
2024-03-24T12:25:11.324Z,195.51
2024-03-24T12:26:11.326Z,195.31
2024-03-24T12:27:11.343Z,195.24
2024-03-24T12:28:11.329Z,196.61
2024-03-24T12:29:11.338Z,193.47
2024-03-24T12:30:11.350Z,195.81
2024-03-24T12:31:11.345Z,194.76
2024-03-24T12:32:11.342Z,195.32
2024-03-24T12:33:11.338Z,194.79
2024-03-24T12:34:11.333Z,192.77
2024-03-24T12:35:11.335Z,192.76
2024-03-24T12:36:11.342Z,194.64
2024-03-24T12:37:11.328Z,192.73
2024-03-24T12:38:11.363Z,195.08
2024-03-24T12:39:11.410Z,192.86